Map

Track Data

SID SEASON NUMBER BASIN SUBBASIN NAME ISO_TIME NATURE LAT LON WMO_WIND WMO_PRES WMO_AGENCY TRACK_TYPE DIST2LAND LANDFALL IFLAG USA_AGENCY USA_ATCF_ID USA_LAT USA_LON USA_RECORD USA_STATUS USA_WIND USA_PRES USA_SSHS USA_R34_NE USA_R34_SE USA_R34_SW USA_R34_NW USA_R50_NE USA_R50_SE USA_R50_SW USA_R50_NW USA_R64_NE USA_R64_SE USA_R64_SW USA_R64_NW USA_POCI USA_ROCI USA_RMW USA_EYE TOKYO_LAT TOKYO_LON TOKYO_GRADE TOKYO_WIND TOKYO_PRES TOKYO_R50_DIR TOKYO_R50_LONG TOKYO_R50_SHORT TOKYO_R30_DIR TOKYO_R30_LONG TOKYO_R30_SHORT TOKYO_LAND CMA_LAT CMA_LON CMA_CAT CMA_WIND CMA_PRES HKO_LAT HKO_LON HKO_CAT HKO_WIND HKO_PRES NEWDELHI_LAT NEWDELHI_LON NEWDELHI_GRADE NEWDELHI_WIND NEWDELHI_PRES NEWDELHI_CI NEWDELHI_DP NEWDELHI_POCI REUNION_LAT REUNION_LON REUNION_TYPE REUNION_WIND REUNION_PRES REUNION_TNUM REUNION_CI REUNION_RMW REUNION_R34_NE REUNION_R34_SE REUNION_R34_SW REUNION_R34_NW REUNION_R50_NE REUNION_R50_SE REUNION_R50_SW REUNION_R50_NW REUNION_R64_NE REUNION_R64_SE REUNION_R64_SW REUNION_R64_NW BOM_LAT BOM_LON BOM_TYPE BOM_WIND BOM_PRES BOM_TNUM BOM_CI BOM_RMW BOM_R34_NE BOM_R34_SE BOM_R34_SW BOM_R34_NW BOM_R50_NE BOM_R50_SE BOM_R50_SW BOM_R50_NW BOM_R64_NE BOM_R64_SE BOM_R64_SW BOM_R64_NW BOM_ROCI BOM_POCI BOM_EYE BOM_POS_METHOD BOM_PRES_METHOD NADI_LAT NADI_LON NADI_CAT NADI_WIND NADI_PRES WELLINGTON_LAT WELLINGTON_LON WELLINGTON_WIND WELLINGTON_PRES DS824_LAT DS824_LON DS824_STAGE DS824_WIND DS824_PRES TD9636_LAT TD9636_LON TD9636_STAGE TD9636_WIND TD9636_PRES TD9635_LAT TD9635_LON TD9635_WIND TD9635_PRES TD9635_ROCI NEUMANN_LAT NEUMANN_LON NEUMANN_CLASS NEUMANN_WIND NEUMANN_PRES MLC_LAT MLC_LON MLC_CLASS MLC_WIND MLC_PRES USA_GUST BOM_GUST BOM_GUST_PER REUNION_GUST REUNION_GUST_PER USA_SEAHGT USA_SEARAD_NE USA_SEARAD_SE USA_SEARAD_SW USA_SEARAD_NW STORM_SPEED STORM_DIR
1885129S14065 1885 20 SI MM NOT_NAMED 1885-05-09 00:00:00 TS -14.3000 65.4000 main 1043 1028 _________O____ -1 -14.3000 65.4000 TC 3 216
1885129S14065 1885 20 SI MM NOT_NAMED 1885-05-09 03:00:00 TS -14.4400 65.3025 main 1028 1005 _________P____ -1 -14.4400 65.3025 TC 4 213
1885129S14065 1885 20 SI MM NOT_NAMED 1885-05-09 06:00:00 TS -14.6000 65.2000 main 1005 983 _________O____ -1 -14.6000 65.2000 TC 4 210
1885129S14065 1885 20 SI MM NOT_NAMED 1885-05-09 09:00:00 TS -14.7925 65.0925 main 983 961 _________P____ -1 -14.7925 65.0925 TC 4 206
1885129S14065 1885 20 SI MM NOT_NAMED 1885-05-09 12:00:00 TS -15.0000 65.0000 main 961 947 _________O____ -1 -15.0000 65.0000 TC 4 199
1885129S14065 1885 20 SI MM NOT_NAMED 1885-05-09 15:00:00 TS -15.2000 64.9500 main 939 926 _________P____ -1 -15.2000 64.9500 TC 4 193
1885129S14065 1885 20 SI MM NOT_NAMED 1885-05-09 18:00:00 TS -15.4000 64.9000 main 926 904 _________O____ -1 -15.4000 64.9000 TC 4 199
1885129S14065 1885 20 SI MM NOT_NAMED 1885-05-09 21:00:00 TS -15.6150 64.8000 main 904 882 _________P____ -1 -15.6150 64.8000 TC 4 206
1885129S14065 1885 20 SI MM NOT_NAMED 1885-05-10 00:00:00 TS -15.8000 64.7000 main 882 867 _________O____ -1 -15.8000 64.7000 TC 3 208
1885129S14065 1885 20 SI MM NOT_NAMED 1885-05-10 03:00:00 TS -15.9075 64.6425 main 867 861 _________P____ -1 -15.9075 64.6425 TC 2 207
1885129S14065 1885 20 SI MM NOT_NAMED 1885-05-10 06:00:00 TS -16.0000 64.6000 main 861 855 _________O____ -1 -16.0000 64.6000 TC 3 200
1885129S14065 1885 20 SI MM NOT_NAMED 1885-05-10 09:00:00 TS -16.1425 64.5500 main 855 834 _________P____ -1 -16.1425 64.5500 TC 3 197
1885129S14065 1885 20 SI MM NOT_NAMED 1885-05-10 12:00:00 TS -16.3000 64.5000 main 834 828 _________O____ -1 -16.3000 64.5000 TC 3 197
1885129S14065 1885 20 SI MM NOT_NAMED 1885-05-10 15:00:00 TS -16.4575 64.4500 main 823 808 _________P____ -1 -16.4575 64.4500 TC 3 197
1885129S14065 1885 20 SI MM NOT_NAMED 1885-05-10 18:00:00 TS -16.6000 64.4000 main 808 802 _________O____ -1 -16.6000 64.4000 TC 3 202
1885129S14065 1885 20 SI MM NOT_NAMED 1885-05-10 21:00:00 TS -16.7000 64.3500 main 793 787 _________P____ -1 -16.7000 64.3500 TC 2 207
1885129S14065 1885 20 SI MM NOT_NAMED 1885-05-11 00:00:00 TS -16.8000 64.3000 main 787 773 _________O____ -1 -16.8000 64.3000 TC 3 204
1885129S14065 1885 20 SI MM NOT_NAMED 1885-05-11 03:00:00 TS -16.9350 64.2425 main 773 762 _________P____ -1 -16.9350 64.2425 TC 3 197
1885129S14065 1885 20 SI MM NOT_NAMED 1885-05-11 06:00:00 TS -17.1000 64.2000 main 762 752 _________O____ -1 -17.1000 64.2000 TC 4 186
1885129S14065 1885 20 SI MM NOT_NAMED 1885-05-11 09:00:00 TS -17.3000 64.1925 main 752 742 _________P____ -1 -17.3000 64.1925 TC 4 0
1885129S14065 1885 20 SI MM NOT_NAMED 1885-05-11 12:00:00 TS -17.5000 64.2000 main 742 732 _________O____ -1 -17.5000 64.2000 TC 4 0
1885129S14065 1885 20 SI MM NOT_NAMED 1885-05-11 15:00:00 TS -17.6650 64.2075 main 732 728 _________P____ -1 -17.6650 64.2075 TC 3 0
1885129S14065 1885 20 SI MM NOT_NAMED 1885-05-11 18:00:00 TS -17.8000 64.2000 main 728 724 _________O____ -1 -17.8000 64.2000 TC 2 195
1885129S14065 1885 20 SI MM NOT_NAMED 1885-05-11 21:00:00 TS -17.8775 64.1500 main 724 709 _________P____ -1 -17.8775 64.1500 TC 2 207
1885129S14065 1885 20 SI MM NOT_NAMED 1885-05-12 00:00:00 TS -18.0000 64.1000 main 709 701 _________O____ -1 -18.0000 64.1000 TC 4 189
1885129S14065 1885 20 SI MM NOT_NAMED 1885-05-12 03:00:00 TS -18.2625 64.0925 main 697 687 _________P____ -1 -18.2625 64.0925 TC 6 179
1885129S14065 1885 20 SI MM NOT_NAMED 1885-05-12 06:00:00 TS -18.6000 64.1000 main 687 678 _________O____ -1 -18.6000 64.1000 TC 7 179
1885129S14065 1885 20 SI MM NOT_NAMED 1885-05-12 09:00:00 TS -18.9500 64.0925 main 678 668 _________P____ -1 -18.9500 64.0925 TC 7 0
1885129S14065 1885 20 SI MM NOT_NAMED 1885-05-12 12:00:00 TS -19.3000 64.1000 main 668 663 _________O____ -1 -19.3000 64.1000 TC 7 178
1885129S14065 1885 20 SI MM NOT_NAMED 1885-05-12 15:00:00 TS -19.6150 64.1350 main 663 661 _________P____ -1 -19.6150 64.1350 TC 6 171
1885129S14065 1885 20 SI MM NOT_NAMED 1885-05-12 18:00:00 TS -19.9000 64.2000 main 669 668 _________O____ -1 -19.9000 64.2000 TC 6 165
1885129S14065 1885 20 SI MM NOT_NAMED 1885-05-12 21:00:00 TS -20.1575 64.2850 main 678 677 _________P____ -1 -20.1575 64.2850 TC 5 159
1885129S14065 1885 20 SI MM NOT_NAMED 1885-05-13 00:00:00 TS -20.4000 64.4000 main 688 688 _________O____ -1 -20.4000 64.4000 TC 6 154
1885129S14065 1885 20 SI MM NOT_NAMED 1885-05-13 03:00:00 TS -20.6500 64.5425 main 698 699 _________P____ -1 -20.6500 64.5425 TC 6 151
1885129S14065 1885 20 SI MM NOT_NAMED 1885-05-13 06:00:00 TS -20.9000 64.7000 main 721 721 _________O____ -1 -20.9000 64.7000 TC 6 150
1885129S14065 1885 20 SI MM NOT_NAMED 1885-05-13 09:00:00 TS -21.1575 64.8500 main 744 744 _________P____ -1 -21.1575 64.8500 TC 6 151
1885129S14065 1885 20 SI MM NOT_NAMED 1885-05-13 12:00:00 TS -21.4000 65.0000 main 758 758 _________O____ -1 -21.4000 65.0000 TC 5 148
1885129S14065 1885 20 SI MM NOT_NAMED 1885-05-13 15:00:00 TS -21.6150 65.1500 main 781 781 _________P____ -1 -21.6150 65.1500 TC 5 145
1885129S14065 1885 20 SI MM NOT_NAMED 1885-05-13 18:00:00 TS -21.8000 65.3000 main 795 795 _________O____ -1 -21.8000 65.3000 TC 4 141
1885129S14065 1885 20 SI MM NOT_NAMED 1885-05-13 21:00:00 TS -21.9575 65.4499 main 810 810 _________P____ -1 -21.9575 65.4499 TC 4 137
1885129S14065 1885 20 SI MM NOT_NAMED 1885-05-14 00:00:00 TS -22.1000 65.6000 main 833 _________O____ -1 -22.1000 65.6000 TC 4 136

About IBTrACS Database

This database is a web-friendly format of International Best Track Archive for Climate Stewardship (IBTrACS), a global best track data archive curated by NOAA dating back to 1842.

Updated: 2021-10-25